Terminal Aerodrome Forecast
Issued by NWS

Current Version | Previous Version | Text Only | Print | Product List | Glossary On
Versions: 1 2 3 4 5 6 7 8 9 10 11 12 13 14 15 16 17 18 19 20 21 22 23 24 25 26 27 28 29 30 31 32 33 34 35 36 37 38 39 40
000
FTUS41 KBOX 210838 AAH
TAFHYA
TAF AMD
KHYA 210838Z 2109/2206 00000KT 3/4SM BR VV003
     FM211300 18003KT 1/4SM FG BKN003
     FM211400 19005KT 1SM BR BKN008
     FM211500 19006KT 6SM BR BKN008
     FM220200 21011KT 2SM BR BKN003=

USA.gov is the U.S. government's official web portal to all federal, state and local government web resources and services.